Time;durP1;ratioP1;P1;durP2;ratioP2;P2;SDS_P1;SDS_P2;PMS_P1;PMS_P2;Temp;Humidity;BMP_temperature;BMP_pressure;BME280_temperature;BME280_humidity;BME280_pressure;Samples;Min_cycle;Max_cycle;Signal;HPM_P1;HPM_P2
2022/09/20 00:01:13;;;;;;;8.27;0.70;;;8.30;99.90;;;;;;5009473;28;20124;-46
2022/09/20 00:03:46;;;;;;;10.52;0.95;;;8.10;99.90;;;;;;5027360;28;20056;-45
2022/09/20 00:06:18;;;;;;;7.20;0.88;;;7.60;99.90;;;;;;5027207;28;20499;-44
2022/09/20 00:08:44;;;;;;;11.15;1.17;;;7.20;99.90;;;;;;5026979;28;20061;-44
2022/09/20 00:11:17;;;;;;;9.13;1.10;;;7.30;99.90;;;;;;5027606;28;20457;-45
2022/09/20 00:13:44;;;;;;;8.55;1.08;;;7.50;99.90;;;;;;5027664;28;20041;-46
2022/09/20 00:16:18;;;;;;;11.60;1.55;;;7.30;99.90;;;;;;5012690;28;20057;-43
2022/09/20 00:18:47;;;;;;;8.50;1.88;;;7.60;99.90;;;;;;5031191;28;20041;-44
2022/09/20 00:21:19;;;;;;;7.43;0.90;;;7.80;99.90;;;;;;5031004;28;20128;-44
2022/09/20 00:23:45;;;;;;;9.03;1.00;;;7.10;99.90;;;;;;5030045;28;20068;-44
2022/09/20 00:26:12;;;;;;;12.50;1.65;;;7.20;99.90;;;;;;5030502;28;20068;-44
2022/09/20 00:28:38;;;;;;;6.75;0.90;;;7.00;99.90;;;;;;5030893;28;20069;-45
2022/09/20 00:31:04;;;;;;;8.50;1.52;;;;;;;;;;5031699;28;20041;-44
2022/09/20 00:36:18;;;;;;;8.52;1.08;;;;;;;;;;5031461;28;20056;-49
2022/09/20 00:38:45;;;;;;;7.10;0.85;;;;;;;;;;5030866;28;20407;-46
2022/09/20 00:41:13;;;;;;;7.78;1.48;;;;;;;;;;5031450;28;20049;-44
2022/09/20 00:43:40;;;;;;;15.05;1.15;;;;;;;;;;5031490;28;20415;-49
2022/09/20 00:46:16;;;;;;;6.00;0.65;;;;;;;;;;5031253;28;20052;-45
2022/09/20 00:48:42;;;;;;;15.43;1.33;;;;;;;;;;5031222;28;20069;-45
2022/09/20 00:51:11;;;;;;;5.72;0.68;;;;;;;;;;5031463;28;20045;-44
2022/09/20 00:53:42;;;;;;;7.13;0.93;;;;;;;;;;5031389;28;20042;-44
2022/09/20 00:56:31;;;;;;;14.02;1.55;;;6.30;99.90;;;;;;5031107;28;20041;-46
2022/09/20 00:59:21;;;;;;;7.88;1.08;;;6.10;99.90;;;;;;5030594;28;20045;-44
2022/09/20 01:02:01;;;;;;;8.50;0.85;;;6.40;99.90;;;;;;5033217;28;20060;-43
2022/09/20 01:04:27;;;;;;;8.48;1.17;;;6.30;99.90;;;;;;5032320;28;20053;-47
2022/09/20 01:06:57;;;;;;;9.88;1.27;;;6.80;99.90;;;;;;5032055;28;20049;-44
2022/09/20 01:09:23;;;;;;;7.82;0.90;;;;;;;;;;5029598;28;20411;-43
2022/09/20 01:11:50;;;;;;;9.80;0.95;;;;;;;;;;5031795;28;20052;-43
2022/09/20 01:14:18;;;;;;;6.53;1.08;;;6.10;99.90;;;;;;5031670;28;20045;-44
2022/09/20 01:16:44;;;;;;;3.75;0.70;;;;;;;;;;5031460;28;20503;-44
2022/09/20 01:19:19;;;;;;;8.57;1.25;;;;;;;;;;5031967;28;20546;-43
2022/09/20 01:21:47;;;;;;;8.43;0.90;;;;;;;;;;5031626;28;20171;-43
2022/09/20 01:24:13;;;;;;;8.48;0.80;;;;;;;;;;5031746;28;20048;-48
2022/09/20 01:26:57;;;;;;;12.02;0.70;;;;;;;;;;5030712;28;20053;-45
2022/09/20 01:29:42;;;;;;;10.70;1.20;;;;;;;;;;5032089;28;20437;-46
2022/09/20 01:32:13;;;;;;;6.40;0.77;;;;;;;;;;5032662;28;20495;-47
2022/09/20 01:34:46;;;;;;;10.93;1.05;;;;;;;;;;5032574;28;20046;-46
2022/09/20 01:37:15;;;;;;;5.80;0.90;;;;;;;;;;5033117;28;20112;-46
2022/09/20 01:39:57;;;;;;;4.35;0.50;;;;;;;;;;5032786;28;20084;-46
2022/09/20 01:42:25;;;;;;;7.75;1.33;;;;;;;;;;5033463;28;20171;-46
2022/09/20 01:44:57;;;;;;;4.22;0.70;;;;;;;;;;5033102;28;20085;-47
2022/09/20 01:47:42;;;;;;;5.07;0.63;;;;;;;;;;5032553;28;20049;-46
2022/09/20 01:50:29;;;;;;;7.03;0.60;;;;;;;;;;5032225;28;20056;-46
2022/09/20 01:52:58;;;;;;;2.08;0.50;;;;;;;;;;5014035;28;20400;-47
2022/09/20 01:55:46;;;;;;;4.28;0.60;;;5.50;99.90;;;;;;5032103;28;20052;-46
2022/09/20 01:58:12;;;;;;;8.27;0.73;;;;;;;;;;4994922;28;20049;-46
2022/09/20 02:00:50;;;;;;;9.05;1.30;;;;;;;;;;5032461;28;20140;-47
2022/09/20 02:03:44;;;;;;;6.13;1.08;;;;;;;;;;5031849;28;20049;-47
2022/09/20 02:06:19;;;;;;;9.27;0.80;;;5.80;99.90;;;;;;5032441;28;20484;-46
2022/09/20 02:09:21;;;;;;;9.18;0.90;;;5.70;99.90;;;;;;5013748;28;20119;-47
2022/09/20 02:12:11;;;;;;;11.50;1.20;;;5.70;99.90;;;;;;5031526;28;20166;-46
2022/09/20 02:15:07;;;;;;;6.88;1.23;;;5.70;99.90;;;;;;5031164;28;20621;-46
2022/09/20 02:17:45;;;;;;;6.93;1.13;;;5.60;99.90;;;;;;5031468;28;20361;-47
2022/09/20 02:20:37;;;;;;;12.32;1.27;;;5.60;99.90;;;;;;5031216;28;20541;-47
2022/09/20 02:23:06;;;;;;;7.90;0.60;;;5.60;99.90;;;;;;5031115;28;20029;-46
2022/09/20 02:25:44;;;;;;;11.68;1.15;;;5.60;99.90;;;;;;5030731;28;20053;-45
2022/09/20 02:28:48;;;;;;;10.98;0.88;;;5.60;99.90;;;;;;5012983;28;20046;-47
2022/09/20 02:31:47;;;;;;;6.55;1.02;;;5.60;99.90;;;;;;5031217;28;20045;-46
2022/09/20 02:34:12;;;;;;;4.68;0.80;;;5.50;99.90;;;;;;5030523;28;20092;-46
2022/09/20 02:36:49;;;;;;;6.78;1.15;;;5.70;99.90;;;;;;5031476;28;20076;-46
2022/09/20 02:39:29;;;;;;;8.05;0.85;;;5.70;99.90;;;;;;5030977;28;20048;-47
2022/09/20 02:42:20;;;;;;;6.65;1.25;;;5.50;99.90;;;;;;5033508;28;20057;-45
2022/09/20 02:45:05;;;;;;;12.52;1.83;;;5.50;99.90;;;;;;5029367;28;20448;-48
2022/09/20 02:47:37;;;;;;;7.82;0.85;;;5.40;99.90;;;;;;5028410;28;20139;-46
2022/09/20 02:50:09;;;;;;;7.68;1.15;;;5.40;99.90;;;;;;5028992;28;20522;-46
2022/09/20 02:52:43;;;;;;;6.22;0.98;;;5.40;99.90;;;;;;5030562;28;20049;-46
2022/09/20 02:55:17;;;;;;;14.27;1.50;;;5.40;99.90;;;;;;5030204;28;20038;-47
2022/09/20 02:58:25;;;;;;;11.82;1.38;;;5.40;99.90;;;;;;5030565;28;20116;-46
2022/09/20 03:01:11;;;;;;;8.43;1.05;;;5.40;99.90;;;;;;4985821;28;20061;-47
2022/09/20 03:04:24;;;;;;;12.52;1.00;;;5.40;99.90;;;;;;5029864;28;20550;-47
2022/09/20 03:07:02;;;;;;;12.10;1.10;;;5.40;99.90;;;;;;4969008;28;20136;-47
2022/09/20 03:09:43;;;;;;;5.85;0.80;;;5.40;99.90;;;;;;5029555;28;20569;-48
2022/09/20 03:12:11;;;;;;;14.07;1.52;;;5.40;99.90;;;;;;5029884;28;20116;-46
2022/09/20 03:14:48;;;;;;;7.57;0.90;;;5.50;99.90;;;;;;5029704;28;20060;-46
2022/09/20 03:17:35;;;;;;;6.35;1.02;;;5.60;99.90;;;;;;5028982;28;20399;-50
2022/09/20 03:20:28;;;;;;;7.18;0.95;;;5.60;99.90;;;;;;5029246;28;20120;-46
2022/09/20 03:23:16;;;;;;;11.70;2.15;;;5.40;99.90;;;;;;5029394;28;20048;-46
2022/09/20 03:25:49;;;;;;;9.98;1.02;;;5.50;99.90;;;;;;5029269;28;20118;-49
2022/09/20 03:28:38;;;;;;;7.05;0.95;;;6.40;99.90;;;;;;5011625;28;20392;-45
2022/09/20 03:31:10;;;;;;;6.80;1.05;;;5.30;99.90;;;;;;5029677;28;20052;-46
2022/09/20 03:34:02;;;;;;;13.07;1.95;;;5.50;99.90;;;;;;5010893;28;20498;-46
2022/09/20 03:36:43;;;;;;;13.05;1.55;;;5.00;99.90;;;;;;5029432;28;20095;-48
2022/09/20 03:39:33;;;;;;;7.93;1.65;;;4.90;99.90;;;;;;5028800;28;20372;-45
2022/09/20 03:42:11;;;;;;;8.20;1.33;;;5.20;99.90;;;;;;5029195;28;20171;-46
2022/09/20 03:44:57;;;;;;;4.80;1.15;;;5.20;99.90;;;;;;5030719;28;20081;-46
2022/09/20 03:47:25;;;;;;;6.88;1.02;;;5.50;99.90;;;;;;5029578;28;20041;-47
2022/09/20 03:49:57;;;;;;;6.65;0.90;;;5.30;99.90;;;;;;5030161;28;20045;-46
2022/09/20 03:52:34;;;;;;;8.15;1.50;;;5.20;99.90;;;;;;5032928;28;20103;-45
2022/09/20 03:55:58;;;;;;;7.68;1.27;;;5.20;99.90;;;;;;5033181;28;20484;-46
2022/09/20 03:58:39;;;;;;;10.57;1.13;;;5.50;99.90;;;;;;4972066;28;20117;-47
2022/09/20 04:01:32;;;;;;;9.30;1.42;;;5.30;99.90;;;;;;5025403;28;20507;-53
2022/09/20 04:04:18;;;;;;;7.18;1.08;;;5.30;99.90;;;;;;4997837;28;20058;-45
2022/09/20 04:07:22;;;;;;;8.73;1.38;;;5.50;99.90;;;;;;5029495;28;20456;-46
2022/09/20 04:10:25;;;;;;;6.97;1.85;;;5.30;99.90;;;;;;5035045;28;20064;-46
2022/09/20 04:13:09;;;;;;;9.85;1.30;;;5.30;99.90;;;;;;5029834;28;20053;-54
2022/09/20 04:16:03;;;;;;;5.55;1.00;;;5.60;99.90;;;;;;5027758;28;20048;-54
2022/09/20 04:18:39;;;;;;;8.50;1.30;;;5.40;99.90;;;;;;5028026;28;20064;-55
2022/09/20 04:21:42;;;;;;;12.02;1.02;;;5.30;99.90;;;;;;5027015;28;20051;-57
2022/09/20 04:24:21;;;;;;;7.88;1.20;;;5.40;99.90;;;;;;5026855;28;20098;-57
2022/09/20 04:26:52;;;;;;;11.60;1.35;;;5.50;99.90;;;;;;5030374;28;20502;-45
2022/09/20 04:29:39;;;;;;;10.32;1.02;;;5.50;99.90;;;;;;5034503;28;20121;-46
2022/09/20 04:32:27;;;;;;;10.18;1.33;;;5.30;99.90;;;;;;5032993;28;20041;-46
2022/09/20 04:38:17;;;;;;;7.63;1.40;;;5.30;99.90;;;;;;5022245;28;20103;-47
2022/09/20 04:41:21;;;;;;;6.28;1.30;;;5.50;99.90;;;;;;5034011;28;20049;-45
2022/09/20 04:44:05;;;;;;;10.50;1.20;;;5.30;99.90;;;;;;4953675;29;20043;-45
2022/09/20 04:46:48;;;;;;;7.18;1.25;;;5.40;99.90;;;;;;5028283;28;20095;-44
2022/09/20 04:49:41;;;;;;;11.00;1.25;;;5.40;99.90;;;;;;5034706;28;20486;-44
2022/09/20 04:52:25;;;;;;;13.52;1.40;;;5.40;99.90;;;;;;5032271;28;20418;-44
2022/09/20 04:55:14;;;;;;;9.05;1.40;;;5.40;99.90;;;;;;5033802;28;20061;-45
2022/09/20 04:58:03;;;;;;;9.20;1.60;;;5.30;99.90;;;;;;5034877;28;20037;-44
2022/09/20 05:00:59;;;;;;;9.63;1.60;;;5.40;99.90;;;;;;5034969;28;20121;-45
2022/09/20 05:03:28;;;;;;;12.43;1.70;;;5.30;99.90;;;;;;5035163;28;20056;-45
2022/09/20 05:06:14;;;;;;;8.05;1.40;;;5.40;99.90;;;;;;5034515;28;20096;-46
2022/09/20 05:09:04;;;;;;;12.52;1.90;;;5.40;99.90;;;;;;5034382;28;20041;-44
2022/09/20 05:12:01;;;;;;;10.48;1.52;;;5.50;99.90;;;;;;5034186;28;20088;-45
2022/09/20 05:14:40;;;;;;;11.10;1.60;;;5.50;99.90;;;;;;5033816;28;20480;-48
2022/09/20 05:17:33;;;;;;;9.27;1.67;;;5.60;99.90;;;;;;5034103;28;20116;-45
2022/09/20 05:20:24;;;;;;;12.90;2.10;;;5.70;99.90;;;;;;5034318;28;20475;-46
2022/09/20 05:23:15;;;;;;;7.97;2.53;;;5.80;99.90;;;;;;5034214;28;20041;-45
2022/09/20 05:26:15;;;;;;;8.65;1.73;;;5.90;99.90;;;;;;5034132;28;20041;-48
2022/09/20 05:28:58;;;;;;;9.40;1.48;;;6.00;99.90;;;;;;5029765;28;20124;-47
2022/09/20 05:31:42;;;;;;;11.18;1.38;;;6.10;99.90;;;;;;5033531;28;20081;-45
2022/09/20 05:34:17;;;;;;;13.27;2.20;;;6.40;99.90;;;;;;5034368;28;20099;-44
2022/09/20 05:36:55;;;;;;;13.32;1.65;;;6.30;99.90;;;;;;5034203;28;20501;-44
2022/09/20 05:39:49;;;;;;;5.57;1.38;;;6.40;99.90;;;;;;5033717;28;20041;-46
2022/09/20 05:42:25;;;;;;;8.13;1.67;;;6.50;99.90;;;;;;5032923;28;20474;-44
2022/09/20 05:45:16;;;;;;;9.55;1.98;;;6.50;99.90;;;;;;5033754;28;20049;-44
2022/09/20 05:48:00;;;;;;;7.63;1.55;;;6.60;99.90;;;;;;5032107;28;20054;-45
2022/09/20 05:50:33;;;;;;;9.70;2.03;;;6.90;99.90;;;;;;5031437;28;20045;-46
2022/09/20 05:53:13;;;;;;;13.30;1.98;;;7.00;99.90;;;;;;5027562;28;20128;-45
2022/09/20 05:55:57;;;;;;;9.07;1.73;;;6.90;99.90;;;;;;5029073;28;20132;-45
2022/09/20 05:58:47;;;;;;;12.18;2.13;;;7.20;99.90;;;;;;5029363;28;20041;-45
2022/09/20 06:01:33;;;;;;;12.98;2.30;;;7.40;99.90;;;;;;5029460;28;20060;-46
2022/09/20 06:04:16;;;;;;;12.45;1.98;;;7.70;99.90;;;;;;5032056;28;20163;-45
2022/09/20 06:07:05;;;;;;;7.55;1.48;;;7.90;99.90;;;;;;5032027;28;20103;-45
2022/09/20 06:09:34;;;;;;;5.82;1.52;;;;;;;;;;5031077;28;20119;-45
2022/09/20 06:12:34;;;;;;;12.57;1.70;;;8.60;99.90;;;;;;5030971;28;20057;-46
2022/09/20 06:15:40;;;;;;;3.78;1.75;;;8.40;99.90;;;;;;5033621;28;20438;-44
2022/09/20 06:18:06;;;;;;;5.80;1.20;;;8.50;99.90;;;;;;5033215;28;20041;-47
2022/09/20 06:20:43;;;;;;;6.32;2.38;;;8.90;99.90;;;;;;5032207;28;20054;-45
2022/09/20 06:23:09;;;;;;;11.48;1.63;;;8.70;99.90;;;;;;5032460;28;20549;-46
2022/09/20 06:25:43;;;;;;;8.07;1.90;;;8.70;99.90;;;;;;5031107;28;20050;-45
2022/09/20 06:28:15;;;;;;;10.38;2.00;;;8.80;99.90;;;;;;5031191;28;20087;-45
2022/09/20 06:30:51;;;;;;;10.60;1.52;;;8.90;99.90;;;;;;5014944;28;20054;-44
2022/09/20 06:33:20;;;;;;;7.93;1.50;;;9.10;99.90;;;;;;5033196;28;20045;-45
2022/09/20 06:35:55;;;;;;;8.32;2.03;;;9.90;99.90;;;;;;5033170;28;20076;-45
2022/09/20 06:41:29;;;;;;;10.05;1.85;;;9.90;99.90;;;;;;5033321;28;20399;-45
2022/09/20 06:43:57;;;;;;;6.50;1.35;;;9.20;99.90;;;;;;5033506;28;20041;-44
2022/09/20 06:46:34;;;;;;;8.57;1.65;;;9.30;99.90;;;;;;5033169;28;20096;-45
2022/09/20 06:49:01;;;;;;;5.50;1.30;;;9.60;99.90;;;;;;5033206;28;20075;-45
2022/09/20 06:51:33;;;;;;;20.92;4.10;;;9.30;99.90;;;;;;5032022;28;20053;-48
2022/09/20 06:53:59;;;;;;;9.38;1.95;;;9.40;99.90;;;;;;5032419;28;20129;-47
2022/09/20 06:56:28;;;;;;;5.47;1.30;;;9.60;99.90;;;;;;5033027;28;20037;-46
2022/09/20 06:58:54;;;;;;;5.72;1.25;;;9.60;99.90;;;;;;5032868;28;20046;-45
2022/09/20 07:01:20;;;;;;;9.40;1.20;;;9.70;99.90;;;;;;5032519;28;20051;-45
2022/09/20 07:03:46;;;;;;;11.40;1.80;;;10.10;99.90;;;;;;5032788;28;20399;-46
2022/09/20 07:06:15;;;;;;;6.57;1.17;;;9.70;99.90;;;;;;5031077;28;20038;-48
2022/09/20 07:08:42;;;;;;;7.03;1.52;;;9.90;99.90;;;;;;5029113;28;20515;-44
2022/09/20 07:11:15;;;;;;;6.53;1.25;;;9.90;99.90;;;;;;5031392;28;20050;-44
2022/09/20 07:13:44;;;;;;;7.75;1.00;;;10.00;99.90;;;;;;5031306;28;20033;-45
2022/09/20 07:16:13;;;;;;;8.20;1.35;;;9.90;99.90;;;;;;5031147;28;20057;-45
2022/09/20 07:18:40;;;;;;;7.50;1.80;;;10.30;99.90;;;;;;5030282;28;20068;-46
2022/09/20 07:21:09;;;;;;;9.43;1.63;;;10.20;99.90;;;;;;5029918;28;20053;-45
2022/09/20 07:23:35;;;;;;;6.00;1.05;;;10.50;99.90;;;;;;5029455;28;20408;-45
2022/09/20 07:26:01;;;;;;;5.60;0.80;;;10.90;99.90;;;;;;5028841;28;20045;-45
2022/09/20 07:28:28;;;;;;;4.93;0.80;;;10.60;99.90;;;;;;5029614;28;20041;-45
2022/09/20 07:30:53;;;;;;;5.72;1.50;;;10.70;99.90;;;;;;5029605;28;20087;-45
2022/09/20 07:33:20;;;;;;;10.38;1.40;;;11.30;99.90;;;;;;5029423;28;20069;-45
2022/09/20 07:35:53;;;;;;;10.90;1.95;;;11.70;99.90;;;;;;5030526;28;20104;-46
2022/09/20 07:38:20;;;;;;;7.97;0.80;;;11.90;99.90;;;;;;5031671;28;20183;-47
2022/09/20 07:40:56;;;;;;;4.05;0.88;;;12.10;99.90;;;;;;5032038;28;20049;-48
2022/09/20 07:43:22;;;;;;;6.55;1.13;;;12.40;99.90;;;;;;5032150;28;20046;-49
2022/09/20 07:45:56;;;;;;;7.30;1.10;;;12.80;99.90;;;;;;5031960;28;20128;-45
2022/09/20 07:48:33;;;;;;;4.90;0.80;;;12.60;99.90;;;;;;5031825;28;20550;-46
2022/09/20 07:51:05;;;;;;;3.90;0.38;;;12.70;99.90;;;;;;5031764;28;20037;-46
2022/09/20 07:53:31;;;;;;;3.38;0.40;;;12.70;99.90;;;;;;5031820;28;20052;-46
2022/09/20 07:56:02;;;;;;;6.15;0.47;;;12.70;99.90;;;;;;5031819;28;20041;-45
2022/09/20 07:58:32;;;;;;;2.88;0.28;;;12.70;99.90;;;;;;5031726;28;20037;-45
2022/09/20 08:01:01;;;;;;;5.25;0.55;;;12.80;99.90;;;;;;5032093;28;20380;-45
2022/09/20 08:03:29;;;;;;;3.78;0.30;;;12.80;99.90;;;;;;5013951;28;20148;-47
2022/09/20 08:06:06;;;;;;;3.90;0.20;;;12.70;99.90;;;;;;5031738;28;20052;-45
2022/09/20 08:08:35;;;;;;;5.28;0.43;;;13.00;99.90;;;;;;5031532;28;20053;-45
2022/09/20 08:11:05;;;;;;;4.07;0.22;;;12.90;99.90;;;;;;5030896;28;20049;-45
2022/09/20 08:13:38;;;;;;;1.65;0.30;;;12.80;99.90;;;;;;5031632;28;20391;-45
2022/09/20 08:16:09;;;;;;;2.92;0.15;;;12.80;99.90;;;;;;5031754;28;20037;-45
2022/09/20 08:18:36;;;;;;;3.58;0.20;;;12.90;99.90;;;;;;5031807;28;20044;-46
2022/09/20 08:21:06;;;;;;;1.85;0.20;;;13.00;99.90;;;;;;5031590;28;20049;-48
2022/09/20 08:23:40;;;;;;;3.10;0.63;;;13.00;99.90;;;;;;5031729;28;20483;-45
2022/09/20 08:26:12;;;;;;;1.48;0.13;;;13.20;99.90;;;;;;5031736;28;20107;-46
2022/09/20 08:28:40;;;;;;;5.95;0.20;;;13.30;99.90;;;;;;5031807;28;20052;-45
2022/09/20 08:31:08;;;;;;;2.95;0.20;;;13.50;99.90;;;;;;5031144;28;20065;-45
2022/09/20 08:33:36;;;;;;;4.63;0.45;;;13.60;99.90;;;;;;5031570;28;20125;-45
2022/09/20 08:36:03;;;;;;;2.33;0.80;;;14.00;99.90;;;;;;5032165;28;20401;-45
2022/09/20 08:38:30;;;;;;;2.60;0.45;;;14.60;99.90;;;;;;5035612;28;20053;-47
2022/09/20 08:41:04;;;;;;;3.20;0.20;;;15.50;99.90;;;;;;5035562;28;20053;-46
2022/09/20 08:43:36;;;;;;;8.63;0.30;;;15.50;99.90;;;;;;5035187;28;20046;-46
2022/09/20 08:46:04;;;;;;;3.13;0.20;;;15.80;99.90;;;;;;5034640;28;20502;-47
2022/09/20 08:48:32;;;;;;;3.58;0.20;;;16.10;99.90;;;;;;5034672;28;20041;-45
2022/09/20 08:51:02;;;;;;;3.72;0.17;;;17.10;99.90;;;;;;5034604;28;20522;-45
2022/09/20 08:53:29;;;;;;;4.60;0.40;;;17.30;99.90;;;;;;5034538;28;20059;-45
2022/09/20 08:55:58;;;;;;;4.65;0.10;;;17.10;99.90;;;;;;5033597;28;20069;-45
2022/09/20 08:58:25;;;;;;;2.17;0.20;;;17.20;99.90;;;;;;5034084;28;20103;-45
2022/09/20 09:00:52;;;;;;;3.97;0.32;;;17.40;99.90;;;;;;5034105;28;20636;-45
2022/09/20 09:03:18;;;;;;;3.13;0.45;;;17.60;99.90;;;;;;5033875;28;20557;-46
2022/09/20 09:05:45;;;;;;;4.65;0.20;;;17.90;99.90;;;;;;5034112;28;20045;-45
2022/09/20 09:08:15;;;;;;;1.55;0.10;;;18.30;99.90;;;;;;5033835;28;20061;-44
2022/09/20 09:10:43;;;;;;;2.97;0.28;;;18.40;99.90;;;;;;5033403;28;20491;-45
2022/09/20 09:13:23;;;;;;;2.85;0.10;;;18.40;99.90;;;;;;5034227;28;20364;-45
2022/09/20 09:15:54;;;;;;;3.15;0.10;;;18.70;99.90;;;;;;5033910;28;20029;-46
2022/09/20 09:18:20;;;;;;;1.27;0.10;;;18.90;99.90;;;;;;5034254;28;20042;-45
2022/09/20 09:20:46;;;;;;;1.98;0.20;;;18.90;99.90;;;;;;5033871;28;20052;-45
2022/09/20 09:23:26;;;;;;;2.47;0.10;;;19.10;99.90;;;;;;5034063;28;20038;-45
2022/09/20 09:25:53;;;;;;;2.25;0.17;;;19.70;99.90;;;;;;5034219;28;20044;-45
2022/09/20 09:28:25;;;;;;;3.10;0.70;;;20.40;99.90;;;;;;5034145;28;20519;-45
2022/09/20 09:30:51;;;;;;;4.13;0.17;;;21.10;99.90;;;;;;5033971;28;20133;-46
2022/09/20 09:33:27;;;;;;;3.53;0.10;;;21.30;99.90;;;;;;5034199;28;20112;-45
2022/09/20 09:36:19;;;;;;;1.98;0.17;;;21.00;99.90;;;;;;5034266;28;20120;-45
2022/09/20 09:38:46;;;;;;;3.80;0.10;;;20.60;99.90;;;;;;5025787;28;20049;-45
2022/09/20 09:41:24;;;;;;;2.85;0.10;;;20.30;99.90;;;;;;5033840;28;20487;-45
2022/09/20 09:44:22;;;;;;;10.05;0.70;;;20.20;99.90;;;;;;5033746;28;20095;-45
2022/09/20 09:46:49;;;;;;;3.58;0.20;;;20.20;99.90;;;;;;5027574;28;20046;-45
2022/09/20 09:49:19;;;;;;;2.22;0.20;;;20.50;99.90;;;;;;5033203;28;20143;-46
2022/09/20 09:51:54;;;;;;;5.88;0.20;;;20.60;99.90;;;;;;5033701;28;20120;-46
2022/09/20 09:54:24;;;;;;;4.60;0.35;;;20.10;99.90;;;;;;5033643;28;20041;-49
2022/09/20 09:57:11;;;;;;;3.33;0.20;;;19.60;99.90;;;;;;5033904;28;20045;-47
2022/09/20 09:59:48;;;;;;;5.20;0.70;;;19.00;99.90;;;;;;5033394;28;20829;-47
2022/09/20 10:03:07;;;;;;;2.55;0.30;;;18.60;99.90;;;;;;5033356;28;20094;-46
2022/09/20 10:06:00;;;;;;;2.83;0.38;;;18.30;99.90;;;;;;4952761;29;20070;-46
2022/09/20 10:08:47;;;;;;;2.90;0.30;;;18.00;99.90;;;;;;5031243;28;20064;-46
2022/09/20 10:11:45;;;;;;;3.53;0.88;;;17.90;99.90;;;;;;5033082;28;20057;-45
2022/09/20 10:14:29;;;;;;;3.20;0.10;;;17.80;99.90;;;;;;5033418;28;20034;-45
2022/09/20 10:17:24;;;;;;;3.15;0.28;;;17.80;99.90;;;;;;5033264;28;20038;-45
2022/09/20 10:20:20;;;;;;;4.65;0.30;;;17.90;99.90;;;;;;5033092;28;20112;-45
2022/09/20 10:23:03;;;;;;;6.90;0.60;;;18.00;99.90;;;;;;5033429;28;20077;-45
2022/09/20 10:26:07;;;;;;;3.80;0.20;;;18.10;99.90;;;;;;5033027;28;20064;-45
2022/09/20 10:28:36;;;;;;;4.65;0.15;;;18.20;99.90;;;;;;5032906;28;20498;-45
2022/09/20 10:31:19;;;;;;;4.45;0.20;;;18.30;99.90;;;;;;5033016;28;20045;-45
2022/09/20 10:34:09;;;;;;;2.42;0.10;;;18.40;99.90;;;;;;5032936;28;20076;-46
2022/09/20 10:36:57;;;;;;;3.85;0.20;;;18.50;99.90;;;;;;5033111;28;20044;-45
2022/09/20 10:39:42;;;;;;;1.60;0.10;;;18.50;99.90;;;;;;5033319;28;20079;-46
2022/09/20 10:45:18;;;;;;;2.75;0.17;;;18.60;99.90;;;;;;5033176;28;20180;-45
2022/09/20 10:48:07;;;;;;;3.33;0.20;;;18.70;99.90;;;;;;5032730;28;20091;-46
2022/09/20 10:50:44;;;;;;;1.70;0.15;;;18.70;99.90;;;;;;5014923;28;20050;-45
2022/09/20 10:53:31;;;;;;;2.95;0.10;;;18.70;99.90;;;;;;5032446;28;20052;-45
2022/09/20 10:56:19;;;;;;;3.13;0.43;;;18.70;98.90;;;;;;5032584;28;20378;-45
2022/09/20 10:59:08;;;;;;;1.33;0.10;;;18.80;98.00;;;;;;5032366;28;20037;-46
2022/09/20 11:01:34;;;;;;;1.23;0.10;;;18.80;98.80;;;;;;4994248;28;20064;-45
2022/09/20 11:04:05;;;;;;;2.15;0.20;;;18.80;99.20;;;;;;5031958;28;20041;-45
2022/09/20 11:07:01;;;;;;;1.55;0.10;;;18.90;99.90;;;;;;5031716;28;20055;-46
2022/09/20 11:09:33;;;;;;;2.30;0.10;;;18.70;99.90;;;;;;5031753;28;20099;-45
2022/09/20 11:12:22;;;;;;;3.72;0.45;;;18.50;99.90;;;;;;5013829;28;20049;-45
2022/09/20 11:15:03;;;;;;;4.05;0.10;;;18.10;97.70;;;;;;5032488;28;20029;-45
2022/09/20 11:17:35;;;;;;;3.60;0.38;;;17.80;99.90;;;;;;5031920;28;20041;-45
2022/09/20 11:20:32;;;;;;;4.13;0.13;;;17.60;99.90;;;;;;5031912;28;20117;-45
2022/09/20 11:23:23;;;;;;;3.72;0.28;;;17.40;99.20;;;;;;5030981;28;20076;-45
2022/09/20 11:25:56;;;;;;;2.47;0.20;;;17.40;99.10;;;;;;5032285;28;20050;-45
2022/09/20 11:28:32;;;;;;;3.78;0.30;;;17.40;99.10;;;;;;5031841;28;20037;-45
2022/09/20 11:31:20;;;;;;;3.40;0.13;;;17.50;98.30;;;;;;5032032;28;20186;-44
2022/09/20 11:34:01;;;;;;;2.65;0.35;;;17.60;97.20;;;;;;5031872;28;20052;-45
2022/09/20 11:36:38;;;;;;;3.17;0.20;;;17.80;98.60;;;;;;5031823;28;20199;-46
2022/09/20 11:39:52;;;;;;;3.20;0.40;;;17.80;99.20;;;;;;5031780;28;20037;-46
2022/09/20 11:42:22;;;;;;;4.35;0.40;;;17.90;98.30;;;;;;4971205;28;20049;-47
2022/09/20 11:44:49;;;;;;;1.83;0.10;;;18.00;97.60;;;;;;5031614;28;20041;-46
2022/09/20 11:47:30;;;;;;;3.53;0.20;;;18.20;97.90;;;;;;5031760;28;20041;-47
2022/09/20 11:50:14;;;;;;;1.73;0.20;;;18.30;98.20;;;;;;5014249;28;20047;-46
2022/09/20 11:53:02;;;;;;;3.83;0.52;;;18.30;97.20;;;;;;5031481;28;20076;-45
2022/09/20 11:55:49;;;;;;;3.42;0.28;;;18.40;97.80;;;;;;5032047;28;20060;-45
2022/09/20 11:58:17;;;;;;;4.13;0.20;;;18.40;98.40;;;;;;5031623;28;20041;-46
2022/09/20 12:00:46;;;;;;;4.82;0.38;;;18.40;99.00;;;;;;5031748;28;20041;-48
2022/09/20 12:03:25;;;;;;;3.67;0.20;;;18.60;99.20;;;;;;5031530;28;20045;-46
2022/09/20 12:05:59;;;;;;;5.47;0.35;;;18.60;99.30;;;;;;5032219;28;20087;-45
2022/09/20 12:08:29;;;;;;;7.43;0.77;;;18.70;98.50;;;;;;5031405;28;20128;-45
2022/09/20 12:11:03;;;;;;;5.80;0.68;;;18.60;98.00;;;;;;5032986;28;20046;-47
2022/09/20 12:13:30;;;;;;;3.13;0.20;;;18.50;97.40;;;;;;5035318;28;20046;-45
2022/09/20 12:16:33;;;;;;;3.42;0.25;;;18.50;97.80;;;;;;5017694;28;20041;-46
2022/09/20 12:19:01;;;;;;;4.88;0.30;;;18.50;97.10;;;;;;5035817;28;20057;-45
2022/09/20 12:21:27;;;;;;;2.65;0.60;;;18.60;98.40;;;;;;5036065;28;20188;-45
2022/09/20 12:23:55;;;;;;;2.40;0.25;;;18.70;99.00;;;;;;5035313;28;20124;-46
2022/09/20 12:26:21;;;;;;;5.95;0.38;;;18.70;98.50;;;;;;5035742;28;20048;-47
2022/09/20 12:28:48;;;;;;;3.80;0.40;;;18.70;98.50;;;;;;5034986;28;20395;-45
2022/09/20 12:31:17;;;;;;;6.57;0.50;;;18.60;97.30;;;;;;5035002;28;20037;-46
2022/09/20 12:34:10;;;;;;;3.35;0.60;;;18.40;97.70;;;;;;5035215;28;20045;-46
2022/09/20 12:36:43;;;;;;;4.80;1.65;;;18.20;96.10;;;;;;5035430;28;20047;-46
2022/09/20 12:39:12;;;;;;;5.78;0.45;;;17.90;97.40;;;;;;5035269;28;20556;-45
2022/09/20 12:42:01;;;;;;;4.60;1.20;;;17.60;97.60;;;;;;5035117;28;20977;-45
2022/09/20 12:44:57;;;;;;;3.97;0.35;;;17.50;96.10;;;;;;5035248;28;20045;-46
2022/09/20 12:47:30;;;;;;;3.78;0.28;;;17.40;96.70;;;;;;5029739;28;20052;-47
2022/09/20 12:52:52;;;;;;;3.30;0.20;;;17.80;97.90;;;;;;5029725;28;20053;-47
2022/09/20 12:55:44;;;;;;;2.90;0.32;;;17.70;96.70;;;;;;5028826;28;20120;-46
2022/09/20 12:58:13;;;;;;;;;;;17.50;95.60;;;;;;5029001;28;20046;-45
2022/09/20 13:00:43;;;;;;;1.58;0.20;;;17.30;97.10;;;;;;5028860;28;20303;-45
2022/09/20 13:03:35;;;;;;;6.63;1.23;;;17.20;98.10;;;;;;5034770;28;20045;-45
2022/09/20 13:06:07;;;;;;;5.90;0.25;;;17.10;97.40;;;;;;5023950;28;20385;-46
2022/09/20 13:08:48;;;;;;;4.70;0.70;;;17.00;98.80;;;;;;5034648;28;20499;-46
2022/09/20 13:11:18;;;;;;;2.57;0.20;;;17.00;98.60;;;;;;5034854;28;20555;-46
2022/09/20 13:13:54;;;;;;;3.97;0.20;;;16.90;98.60;;;;;;5016876;28;20055;-45
2022/09/20 13:16:30;;;;;;;3.83;0.15;;;16.90;98.90;;;;;;5033853;28;20037;-46
2022/09/20 13:19:00;;;;;;;2.80;0.20;;;17.00;98.60;;;;;;5015812;28;20055;-45
2022/09/20 13:21:26;;;;;;;4.85;0.30;;;16.90;98.00;;;;;;5032185;28;20826;-46
2022/09/20 13:23:54;;;;;;;2.17;0.10;;;16.90;98.40;;;;;;5031021;28;20056;-45
2022/09/20 13:26:32;;;;;;;3.22;0.25;;;16.90;98.80;;;;;;5032293;28;20167;-46
2022/09/20 13:28:59;;;;;;;4.65;0.70;;;17.00;98.60;;;;;;5031767;28;20045;-46
2022/09/20 13:31:33;;;;;;;6.00;0.40;;;17.20;98.90;;;;;;5032224;28;20472;-45
2022/09/20 13:34:17;;;;;;;2.22;0.20;;;17.20;98.50;;;;;;5032892;28;20488;-46
2022/09/20 13:36:45;;;;;;;3.38;0.50;;;17.60;98.30;;;;;;5032692;28;20037;-46
2022/09/20 13:39:28;;;;;;;4.07;0.30;;;17.40;97.30;;;;;;5032494;28;20037;-46
2022/09/20 13:42:00;;;;;;;5.50;0.20;;;17.40;96.90;;;;;;5032472;28;20049;-48
2022/09/20 13:44:28;;;;;;;4.05;0.40;;;17.40;96.40;;;;;;5032611;28;20045;-46
2022/09/20 13:46:53;;;;;;;5.65;0.75;;;17.40;96.10;;;;;;5032841;28;20175;-46
2022/09/20 13:49:21;;;;;;;2.90;0.25;;;17.10;96.90;;;;;;5033010;28;20080;-46
2022/09/20 13:51:47;;;;;;;5.05;0.30;;;17.00;96.70;;;;;;5030963;28;20045;-47
2022/09/20 13:54:31;;;;;;;3.72;0.20;;;16.90;97.60;;;;;;5030212;28;20506;-47
2022/09/20 13:57:02;;;;;;;3.15;0.10;;;16.80;99.20;;;;;;5030224;28;20041;-46
2022/09/20 13:59:49;;;;;;;5.45;0.20;;;16.60;99.90;;;;;;5030088;28;20045;-46
2022/09/20 14:02:33;;;;;;;2.75;0.10;;;16.40;99.90;;;;;;5031336;28;20399;-46
2022/09/20 14:05:03;;;;;;;3.80;0.20;;;16.20;97.10;;;;;;5032094;28;20049;-47
2022/09/20 14:07:29;;;;;;;2.33;0.13;;;16.10;97.00;;;;;;5011929;28;20062;-48
2022/09/20 14:09:57;;;;;;;1.95;0.10;;;16.10;98.20;;;;;;5029948;28;20057;-46